Time;durP1;ratioP1;P1;durP2;ratioP2;P2;SDS_P1;SDS_P2;PMS_P1;PMS_P2;Temp;Humidity;BMP_temperature;BMP_pressure;BME280_temperature;BME280_humidity;BME280_pressure;Samples;Min_cycle;Max_cycle;Signal;HPM_P1;HPM_P2
2021/06/19 00:01:00;;;;;;;;;;;20.20;99.90;;;;;;5050669;28;19967;-79
2021/06/19 00:03:26;;;;;;;;;;;20.20;99.90;;;;;;5047964;28;19916;-79
2021/06/19 00:05:51;;;;;;;;;;;20.20;99.90;;;;;;5049790;28;19962;-79
2021/06/19 00:08:17;;;;;;;;;;;20.20;99.90;;;;;;5048965;28;19913;-79
2021/06/19 00:10:43;;;;;;;;;;;20.30;99.90;;;;;;5050078;28;19986;-79
2021/06/19 00:13:09;;;;;;;;;;;20.30;99.90;;;;;;5049547;28;20161;-79
2021/06/19 00:15:35;;;;;;;;;;;20.40;99.90;;;;;;5052254;28;20218;-79
2021/06/19 00:18:00;;;;;;;;;;;20.40;99.90;;;;;;5035537;28;19912;-80
2021/06/19 00:20:27;;;;;;;;;;;20.50;99.90;;;;;;5048178;28;19921;-80
2021/06/19 00:22:52;;;;;;;;;;;20.60;99.90;;;;;;5042555;28;19909;-79
2021/06/19 00:25:19;;;;;;;;;;;20.60;99.90;;;;;;5047180;28;19913;-80
2021/06/19 00:27:45;;;;;;;;;;;20.50;99.90;;;;;;5064356;28;20184;-79
2021/06/19 00:30:11;;;;;;;;;;;20.50;99.90;;;;;;5047342;28;19917;-79
2021/06/19 00:32:37;;;;;;;;;;;20.50;99.90;;;;;;5064007;28;19917;-80
2021/06/19 00:35:04;;;;;;;;;;;20.40;99.90;;;;;;5051069;28;20035;-80
2021/06/19 00:37:31;;;;;;;;;;;20.50;99.90;;;;;;5056124;28;19913;-79
2021/06/19 00:39:57;;;;;;;;;;;20.40;99.90;;;;;;5031955;28;19915;-79
2021/06/19 00:42:22;;;;;;;;;;;20.40;99.90;;;;;;5031992;28;19908;-80
2021/06/19 00:44:48;;;;;;;;;;;20.40;99.90;;;;;;5034538;28;20042;-81
2021/06/19 00:47:14;;;;;;;;;;;20.40;99.90;;;;;;5058772;28;19909;-80
2021/06/19 00:49:40;;;;;;;;;;;20.40;99.90;;;;;;5044382;28;19905;-79
2021/06/19 00:52:06;;;;;;;;;;;20.30;99.90;;;;;;5049872;28;19920;-80
2021/06/19 00:54:33;;;;;;;;;;;20.30;99.90;;;;;;5051171;28;19916;-79
2021/06/19 00:57:00;;;;;;;;;;;20.30;99.90;;;;;;5055212;28;20361;-79
2021/06/19 00:59:25;;;;;;;;;;;20.30;99.90;;;;;;5051109;28;19915;-79
2021/06/19 01:01:52;;;;;;;;;;;20.30;99.90;;;;;;5050323;28;19913;-79
2021/06/19 01:04:17;;;;;;;;;;;20.30;99.90;;;;;;5050512;28;19908;-80
2021/06/19 01:06:44;;;;;;;;;;;20.30;99.90;;;;;;5056698;28;19928;-79
2021/06/19 01:09:10;;;;;;;;;;;20.30;99.90;;;;;;5046032;28;19917;-78
2021/06/19 01:11:36;;;;;;;;;;;20.30;99.90;;;;;;5046765;28;19978;-79
2021/06/19 01:14:02;;;;;;;;;;;20.30;99.90;;;;;;5049191;28;19909;-79
2021/06/19 01:16:28;;;;;;;;;;;20.30;99.90;;;;;;5050294;28;19970;-78
2021/06/19 01:18:54;;;;;;;;;;;20.20;99.90;;;;;;5055997;28;19913;-79
2021/06/19 01:21:21;;;;;;;;;;;20.30;99.90;;;;;;5048597;28;20388;-78
2021/06/19 01:23:47;;;;;;;;;;;20.30;99.90;;;;;;5036741;28;20049;-78
2021/06/19 01:26:14;;;;;;;;;;;20.30;99.90;;;;;;5052472;28;19952;-78
2021/06/19 01:28:39;;;;;;;;;;;20.30;99.90;;;;;;5047317;28;19916;-78
2021/06/19 01:31:05;;;;;;;;;;;20.40;99.90;;;;;;5044885;28;20197;-78
2021/06/19 01:33:31;;;;;;;;;;;20.40;99.90;;;;;;5037119;28;19921;-77
2021/06/19 01:35:56;;;;;;;;;;;20.50;99.90;;;;;;5056125;28;19912;-78
2021/06/19 01:38:22;;;;;;;;;;;20.50;99.90;;;;;;5025094;28;19928;-79
2021/06/19 01:40:47;;;;;;;;;;;20.60;99.90;;;;;;5061169;28;19916;-79
2021/06/19 01:43:13;;;;;;;;;;;20.60;99.90;;;;;;5054791;28;19913;-78
2021/06/19 01:45:38;;;;;;;;;;;20.60;99.90;;;;;;5054838;28;20003;-79
2021/06/19 01:48:06;;;;;;;;;;;20.50;99.90;;;;;;5033770;28;20012;-80
2021/06/19 01:50:32;;;;;;;;;;;20.60;99.90;;;;;;5050657;28;19913;-79
2021/06/19 01:52:58;;;;;;;;;;;20.60;99.90;;;;;;5056293;28;19995;-79
2021/06/19 01:55:24;;;;;;;;;;;20.60;99.90;;;;;;5055142;28;20015;-79
2021/06/19 01:57:54;;;;;;;;;;;20.60;99.90;;;;;;5054414;28;19991;-77
2021/06/19 02:00:24;;;;;;;;;;;20.60;99.90;;;;;;5051392;28;19959;-77
2021/06/19 02:02:50;;;;;;;;;;;20.60;99.90;;;;;;5054031;28;19920;-78
2021/06/19 02:05:17;;;;;;;;;;;20.60;99.90;;;;;;5051792;28;20413;-78
2021/06/19 02:07:43;;;;;;;;;;;20.60;99.90;;;;;;5055863;28;19916;-77
2021/06/19 02:10:09;;;;;;;;;;;20.50;99.90;;;;;;5055490;28;19919;-78
2021/06/19 02:12:35;;;;;;;;;;;20.50;99.90;;;;;;5055419;28;19919;-77
2021/06/19 02:15:00;;;;;;;;;;;20.50;99.90;;;;;;5036816;28;20015;-78
2021/06/19 02:17:26;;;;;;;;;;;20.50;99.90;;;;;;5055181;28;19917;-76
2021/06/19 02:19:51;;;;;;;;;;;20.40;99.90;;;;;;5053430;28;19913;-79
2021/06/19 02:22:17;;;;;;;;;;;20.40;99.90;;;;;;5051407;28;19959;-79
2021/06/19 02:24:43;;;;;;;;;;;20.40;99.90;;;;;;5048604;28;19999;-79
2021/06/19 02:27:12;;;;;;;;;;;20.30;99.90;;;;;;5046350;28;20031;-80
2021/06/19 02:29:38;;;;;;;;;;;20.20;99.90;;;;;;5053025;28;19928;-77
2021/06/19 02:32:04;;;;;;;;;;;20.20;99.90;;;;;;5045433;28;19909;-78
2021/06/19 02:34:30;;;;;;;;;;;20.10;99.90;;;;;;5070608;28;19912;-78
2021/06/19 02:36:55;;;;;;;;;;;20.10;99.90;;;;;;5048252;28;19912;-79
2021/06/19 02:39:22;;;;;;;;;;;20.00;99.90;;;;;;5069316;28;19912;-78
2021/06/19 02:41:47;;;;;;;;;;;20.00;99.90;;;;;;5037824;28;19908;-78
2021/06/19 02:44:13;;;;;;;;;;;19.90;99.90;;;;;;5040677;28;19916;-78
2021/06/19 02:46:38;;;;;;;;;;;19.80;99.90;;;;;;5051098;28;19908;-81
2021/06/19 02:49:04;;;;;;;;;;;19.70;99.90;;;;;;5053747;28;19915;-78
2021/06/19 02:51:29;;;;;;;;;;;19.70;99.90;;;;;;5053504;28;19955;-81
2021/06/19 02:53:55;;;;;;;;;;;19.70;99.90;;;;;;5053343;28;19958;-83
2021/06/19 02:56:20;;;;;;;;;;;19.60;99.90;;;;;;5025680;28;20036;-77
2021/06/19 02:58:46;;;;;;;;;;;19.60;99.90;;;;;;5048655;28;19909;-80
2021/06/19 03:01:11;;;;;;;;;;;19.50;99.90;;;;;;5049421;28;19909;-80
2021/06/19 03:03:37;;;;;;;;;;;19.50;99.90;;;;;;5049269;28;19909;-81
2021/06/19 03:06:03;;;;;;;;;;;19.50;99.90;;;;;;5054555;28;20231;-79
2021/06/19 03:08:29;;;;;;;;;;;19.50;99.90;;;;;;5043604;28;20172;-79
2021/06/19 03:10:54;;;;;;;;;;;19.40;99.90;;;;;;5034412;28;19905;-79
2021/06/19 03:13:20;;;;;;;;;;;19.40;99.90;;;;;;5048965;28;19974;-78
2021/06/19 03:15:45;;;;;;;;;;;19.40;99.90;;;;;;5044567;28;19924;-84
2021/06/19 03:18:11;;;;;;;;;;;19.40;99.90;;;;;;5070133;28;20215;-83
2021/06/19 03:20:37;;;;;;;;;;;19.40;99.90;;;;;;5070418;28;19971;-82
2021/06/19 03:23:03;;;;;;;;;;;19.30;99.90;;;;;;5071124;28;19912;-79
2021/06/19 03:25:30;;;;;;;;;;;19.30;99.90;;;;;;5034875;28;20234;-86
2021/06/19 03:27:56;;;;;;;;;;;19.30;99.90;;;;;;5051469;28;20341;-81
2021/06/19 03:30:23;;;;;;;;;;;19.30;99.90;;;;;;5035259;28;20023;-84
2021/06/19 03:32:49;;;;;;;;;;;19.30;99.90;;;;;;5040364;28;20310;-81
2021/06/19 03:35:15;;;;;;;;;;;19.30;99.90;;;;;;5051332;28;19917;-81
2021/06/19 03:37:41;;;;;;;;;;;19.30;99.90;;;;;;5039984;28;19908;-81
2021/06/19 03:40:08;;;;;;;;;;;19.20;99.90;;;;;;5036466;28;19912;-81
2021/06/19 03:42:33;;;;;;;;;;;19.10;99.90;;;;;;5034913;28;19959;-82
2021/06/19 03:44:59;;;;;;;;;;;19.10;99.90;;;;;;5052886;28;19936;-85
2021/06/19 03:47:24;;;;;;;;;;;19.10;99.90;;;;;;5064277;28;19912;-83
2021/06/19 03:49:50;;;;;;;;;;;19.10;99.90;;;;;;5039684;28;19912;-79
2021/06/19 03:52:15;;;;;;;;;;;19.10;99.90;;;;;;5047420;28;20047;-81
2021/06/19 03:54:41;;;;;;;;;;;19.00;99.90;;;;;;5035122;28;20258;-79
2021/06/19 03:57:07;;;;;;;;;;;19.10;99.90;;;;;;5047316;28;19905;-82
2021/06/19 03:59:33;;;;;;;;;;;19.00;99.90;;;;;;5051882;28;19909;-85
2021/06/19 04:01:59;;;;;;;;;;;19.00;99.90;;;;;;5035452;28;19920;-82
2021/06/19 04:04:25;;;;;;;;;;;19.00;99.90;;;;;;5051663;28;19909;-82
2021/06/19 04:06:50;;;;;;;;;;;19.00;99.90;;;;;;5053634;28;19908;-77
2021/06/19 04:09:16;;;;;;;;;;;19.00;99.90;;;;;;5053977;28;19919;-81
2021/06/19 04:11:42;;;;;;;;;;;19.00;99.90;;;;;;5047823;28;19987;-83
2021/06/19 04:14:08;;;;;;;;;;;19.00;99.90;;;;;;5050516;28;20303;-81
2021/06/19 04:16:33;;;;;;;;;;;18.90;99.90;;;;;;5050615;28;19920;-81
2021/06/19 04:18:59;;;;;;;;;;;18.90;99.90;;;;;;5035047;28;19920;-79
2021/06/19 04:21:25;;;;;;;;;;;18.90;99.90;;;;;;5056466;28;19919;-81
2021/06/19 04:23:50;;;;;;;;;;;18.90;99.90;;;;;;5056333;28;19909;-81
2021/06/19 04:26:16;;;;;;;;;;;18.80;99.90;;;;;;5072820;28;20003;-80
2021/06/19 04:28:41;;;;;;;;;;;18.80;99.90;;;;;;5048414;28;19915;-82
2021/06/19 04:31:07;;;;;;;;;;;18.80;99.90;;;;;;5046339;28;19913;-81
2021/06/19 04:33:33;;;;;;;;;;;18.90;99.90;;;;;;5065750;28;19916;-80
2021/06/19 04:35:58;;;;;;;;;;;18.90;99.90;;;;;;5057501;28;19909;-80
2021/06/19 04:38:24;;;;;;;;;;;18.80;99.90;;;;;;5049018;28;19956;-79
2021/06/19 04:41:06;;;;;;;;;;;18.80;99.90;;;;;;5053024;28;19919;-79
2021/06/19 04:43:40;;;;;;;;;;;18.80;99.90;;;;;;5051738;28;20216;-77
2021/06/19 04:46:06;;;;;;;;;;;18.80;99.90;;;;;;5055391;28;19923;-77
2021/06/19 04:48:31;;;;;;;;;;;18.80;99.90;;;;;;5054797;28;19912;-83
2021/06/19 04:50:57;;;;;;;;;;;18.80;99.90;;;;;;5051568;28;19917;-84
2021/06/19 04:53:23;;;;;;;;;;;18.80;99.90;;;;;;5053274;28;20330;-82
2021/06/19 04:55:48;;;;;;;;;;;18.80;99.90;;;;;;5072230;28;20211;-80
2021/06/19 04:58:14;;;;;;;;;;;18.80;99.90;;;;;;5054692;28;19913;-79
2021/06/19 05:00:39;;;;;;;;;;;18.80;99.90;;;;;;5055884;28;19917;-77
2021/06/19 05:03:05;;;;;;;;;;;18.80;99.90;;;;;;5064906;28;19917;-81
2021/06/19 05:05:31;;;;;;;;;;;18.90;99.90;;;;;;5067152;28;20517;-77
2021/06/19 05:07:57;;;;;;;;;;;18.90;99.90;;;;;;5055958;28;20222;-83
2021/06/19 05:10:23;;;;;;;;;;;18.80;99.90;;;;;;5054702;28;19909;-78
2021/06/19 05:12:48;;;;;;;;;;;18.90;99.90;;;;;;5045896;28;19919;-82
2021/06/19 05:15:21;;;;;;;;;;;18.80;99.90;;;;;;5050371;28;20018;-81
2021/06/19 05:17:46;;;;;;;;;;;18.80;99.90;;;;;;5034166;28;20244;-82
2021/06/19 05:20:12;;;;;;;;;;;18.80;99.90;;;;;;5069180;28;20244;-81
2021/06/19 05:22:38;;;;;;;;;;;18.80;99.90;;;;;;5063755;28;19936;-80
2021/06/19 05:25:04;;;;;;;;;;;18.80;99.90;;;;;;5053565;28;19924;-80
2021/06/19 05:27:29;;;;;;;;;;;18.80;99.90;;;;;;5071095;28;19962;-81
2021/06/19 05:29:55;;;;;;;;;;;18.70;99.90;;;;;;5044884;28;19912;-82
2021/06/19 05:32:22;;;;;;;;;;;18.70;99.90;;;;;;5050609;28;20341;-83
2021/06/19 05:34:48;;;;;;;;;;;18.70;99.90;;;;;;5066636;28;19912;-83
2021/06/19 05:37:13;;;;;;;;;;;18.70;99.90;;;;;;5047623;28;20004;-85
2021/06/19 05:39:39;;;;;;;;;;;18.70;99.90;;;;;;5052078;28;20003;-82
2021/06/19 05:42:05;;;;;;;;;;;18.70;99.90;;;;;;5053047;28;19997;-83
2021/06/19 05:44:30;;;;;;;;;;;18.70;99.90;;;;;;5051404;28;19951;-84
2021/06/19 05:46:56;;;;;;;;;;;18.70;99.90;;;;;;5036081;28;19912;-82
2021/06/19 05:49:21;;;;;;;;;;;18.70;99.90;;;;;;5054141;28;19978;-85
2021/06/19 05:51:47;;;;;;;;;;;18.70;99.90;;;;;;5050802;28;19909;-80
2021/06/19 05:54:12;;;;;;;;;;;18.70;99.90;;;;;;5040808;28;20349;-83
2021/06/19 05:56:38;;;;;;;;;;;18.70;99.90;;;;;;5032468;28;19916;-83
2021/06/19 05:59:03;;;;;;;;;;;18.70;99.90;;;;;;5053640;28;19909;-82
2021/06/19 06:01:30;;;;;;;;;;;18.70;99.90;;;;;;5048410;28;20011;-78
2021/06/19 06:03:59;;;;;;;;;;;18.80;99.90;;;;;;5039092;28;19959;-81
2021/06/19 06:06:25;;;;;;;;;;;18.80;99.90;;;;;;5043454;28;19940;-81
2021/06/19 06:08:50;;;;;;;;;;;18.90;99.90;;;;;;5050006;28;19960;-81
2021/06/19 06:11:16;;;;;;;;;;;18.90;99.90;;;;;;5021510;28;20290;-84
2021/06/19 06:13:42;;;;;;;;;;;19.00;99.90;;;;;;5049971;28;19916;-76
2021/06/19 06:16:07;;;;;;;;;;;18.90;99.90;;;;;;5054146;28;19905;-85
2021/06/19 06:18:33;;;;;;;;;;;19.00;99.90;;;;;;5036302;28;20291;-87
2021/06/19 06:20:59;;;;;;;;;;;19.00;99.90;;;;;;5054777;28;20022;-88
2021/06/19 06:23:25;;;;;;;;;;;19.00;99.90;;;;;;5037588;28;19930;-84
2021/06/19 06:25:51;;;;;;;;;;;19.00;99.90;;;;;;5056159;28;20332;-81
2021/06/19 06:28:16;;;;;;;;;;;19.00;99.90;;;;;;5053522;28;19913;-80
2021/06/19 06:30:42;;;;;;;;;;;19.00;99.90;;;;;;5037872;28;20027;-80
2021/06/19 06:33:07;;;;;;;;;;;19.00;99.90;;;;;;5046416;28;19959;-77
2021/06/19 06:35:33;;;;;;;;;;;19.00;99.90;;;;;;5045923;28;19917;-84
2021/06/19 06:37:59;;;;;;;;;;;19.00;99.90;;;;;;5056005;28;20287;-82
2021/06/19 06:40:24;;;;;;;;;;;19.00;99.90;;;;;;5037006;28;19905;-80
2021/06/19 06:42:50;;;;;;;;;;;18.90;99.90;;;;;;5049686;28;19920;-78
2021/06/19 06:45:15;;;;;;;;;;;18.90;99.90;;;;;;5047810;28;20374;-85
2021/06/19 06:47:41;;;;;;;;;;;18.90;99.90;;;;;;5055105;28;19935;-80
2021/06/19 06:50:08;;;;;;;;;;;18.90;99.90;;;;;;5046082;28;20003;-82
2021/06/19 06:52:34;;;;;;;;;;;19.00;99.90;;;;;;5067057;28;20222;-84
2021/06/19 06:54:59;;;;;;;;;;;19.00;99.90;;;;;;5067314;28;20074;-83
2021/06/19 06:57:25;;;;;;;;;;;19.10;99.90;;;;;;5037897;28;20279;-78
2021/06/19 06:59:50;;;;;;;;;;;19.10;99.90;;;;;;5038588;28;20360;-86
2021/06/19 07:02:16;;;;;;;;;;;19.10;99.90;;;;;;5047632;28;19909;-84
2021/06/19 07:04:42;;;;;;;;;;;19.20;99.90;;;;;;5037339;28;19967;-84
2021/06/19 07:07:07;;;;;;;;;;;19.30;99.90;;;;;;5063803;28;19943;-93
2021/06/19 07:09:33;;;;;;;;;;;19.30;99.90;;;;;;5036262;28;19912;-89
2021/06/19 07:11:58;;;;;;;;;;;19.40;99.90;;;;;;5051277;28;19915;-86
2021/06/19 07:14:24;;;;;;;;;;;19.30;99.90;;;;;;5062824;28;19916;-85
2021/06/19 07:16:49;;;;;;;;;;;19.30;99.90;;;;;;5051035;28;19919;-84
2021/06/19 07:19:15;;;;;;;;;;;19.30;99.90;;;;;;5051577;28;19908;-81
2021/06/19 07:21:41;;;;;;;;;;;19.30;99.90;;;;;;5071579;28;19923;-83
2021/06/19 07:24:07;;;;;;;;;;;19.30;99.90;;;;;;5034196;28;19916;-82
2021/06/19 07:26:32;;;;;;;;;;;19.30;99.90;;;;;;5041395;28;19909;-78
2021/06/19 07:28:58;;;;;;;;;;;19.40;99.90;;;;;;5048779;28;19920;-88
2021/06/19 07:31:24;;;;;;;;;;;19.40;99.90;;;;;;5038612;28;20080;-83
2021/06/19 07:33:50;;;;;;;;;;;19.40;99.90;;;;;;5054334;28;20314;-77
2021/06/19 07:36:15;;;;;;;;;;;19.50;99.90;;;;;;5036949;28;19908;-92
2021/06/19 07:38:41;;;;;;;;;;;19.50;99.90;;;;;;5066225;28;20899;-88
2021/06/19 07:41:07;;;;;;;;;;;19.50;99.90;;;;;;5053708;28;19909;-83
2021/06/19 07:43:32;;;;;;;;;;;19.50;99.90;;;;;;5048978;28;19940;-90
2021/06/19 07:46:00;;;;;;;;;;;19.50;99.90;;;;;;5044250;28;19908;-90
2021/06/19 07:48:27;;;;;;;;;;;19.40;99.90;;;;;;5070025;28;19996;-82
2021/06/19 07:50:53;;;;;;;;;;;19.40;99.90;;;;;;5035661;28;19909;-91
2021/06/19 07:53:18;;;;;;;;;;;19.40;99.90;;;;;;5035611;28;20303;-82
2021/06/19 07:55:44;;;;;;;;;;;19.30;99.90;;;;;;5047212;28;19963;-85
2021/06/19 07:58:09;;;;;;;;;;;19.30;99.90;;;;;;5047508;28;19921;-90
2021/06/19 08:00:35;;;;;;;;;;;19.20;99.90;;;;;;5050838;28;20210;-85
2021/06/19 08:03:00;;;;;;;;;;;19.20;99.90;;;;;;5052787;28;19916;-85
2021/06/19 08:05:26;;;;;;;;;;;19.20;99.90;;;;;;5047278;28;19963;-91
2021/06/19 08:07:53;;;;;;;;;;;19.10;99.90;;;;;;5048078;28;20318;-89
2021/06/19 08:10:18;;;;;;;;;;;19.10;99.90;;;;;;5044282;28;19913;-90
2021/06/19 08:12:44;;;;;;;;;;;19.00;99.90;;;;;;5052027;28;20608;-81
2021/06/19 08:15:10;;;;;;;;;;;19.00;99.90;;;;;;5031092;28;20007;-78
2021/06/19 08:17:36;;;;;;;;;;;18.90;99.90;;;;;;5033990;28;19940;-81
2021/06/19 08:20:02;;;;;;;;;;;18.80;99.90;;;;;;5049126;28;20290;-80
2021/06/19 08:22:28;;;;;;;;;;;18.80;99.90;;;;;;5049245;28;20370;-85
2021/06/19 08:24:54;;;;;;;;;;;18.80;99.90;;;;;;5045029;28;19909;-83
2021/06/19 08:27:23;;;;;;;;;;;18.70;99.90;;;;;;5048852;28;19920;-77
2021/06/19 08:29:52;;;;;;;;;;;18.70;99.90;;;;;;5038719;28;19904;-91
2021/06/19 08:32:18;;;;;;;;;;;18.70;99.90;;;;;;5034849;28;20272;-83
2021/06/19 08:34:44;;;;;;;;;;;18.70;99.90;;;;;;5066475;28;19962;-89
2021/06/19 08:37:09;;;;;;;;;;;18.70;99.90;;;;;;5056253;28;19912;-84
2021/06/19 08:39:35;;;;;;;;;;;18.60;99.90;;;;;;5066824;28;19920;-81
2021/06/19 08:42:01;;;;;;;;;;;18.50;99.90;;;;;;5053047;28;19920;-81
2021/06/19 08:44:27;;;;;;;;;;;18.40;99.90;;;;;;5035588;28;19916;-83
2021/06/19 08:46:53;;;;;;;;;;;18.40;99.90;;;;;;5057725;28;20015;-80
2021/06/19 08:49:20;;;;;;;;;;;18.40;99.90;;;;;;5059147;28;20043;-88
2021/06/19 08:51:45;;;;;;;;;;;18.40;99.90;;;;;;5040809;28;19909;-87
2021/06/19 08:54:12;;;;;;;;;;;18.40;99.90;;;;;;5037023;28;19927;-83
2021/06/19 08:56:38;;;;;;;;;;;18.40;99.90;;;;;;5080472;28;20207;-81
2021/06/19 08:59:04;;;;;;;;;;;18.40;99.90;;;;;;5060971;28;19908;-80
2021/06/19 09:01:29;;;;;;;;;;;18.30;99.90;;;;;;5062657;28;19920;-81
2021/06/19 09:03:55;;;;;;;;;;;18.30;99.90;;;;;;5063776;28;19913;-79
2021/06/19 09:06:21;;;;;;;;;;;18.30;99.90;;;;;;5065022;28;19919;-81
2021/06/19 09:09:02;;;;;;;;;;;18.20;99.90;;;;;;5065968;28;19916;-81
2021/06/19 09:11:30;;;;;;;;;;;18.20;99.90;;;;;;5063315;28;19940;-83
2021/06/19 09:14:00;;;;;;;;;;;18.10;99.90;;;;;;5062752;28;19919;-81
2021/06/19 09:16:25;;;;;;;;;;;18.10;99.90;;;;;;5059242;28;19910;-86
2021/06/19 09:18:51;;;;;;;;;;;18.10;99.90;;;;;;5063242;28;19923;-85
2021/06/19 09:21:16;;;;;;;;;;;18.00;99.90;;;;;;5063621;28;20310;-84
2021/06/19 09:23:43;;;;;;;;;;;17.90;99.90;;;;;;5062753;28;19909;-87
2021/06/19 09:26:15;;;;;;;;;;;17.90;99.90;;;;;;5060242;28;19910;-81
2021/06/19 09:29:01;;;;;;;;;;;17.90;99.90;;;;;;5061705;28;19952;-81
2021/06/19 09:31:30;;;;;;;;;;;17.90;99.90;;;;;;5061807;28;19934;-84
2021/06/19 09:34:14;;;;;;;;;;;17.90;99.90;;;;;;5060460;28;20054;-82
2021/06/19 09:36:41;;;;;;;;;;;17.90;99.90;;;;;;5059440;28;20333;-79
2021/06/19 09:39:08;;;;;;;;;;;17.90;99.90;;;;;;5063726;28;20277;-86
2021/06/19 09:41:38;;;;;;;;;;;18.00;99.90;;;;;;5061291;28;19917;-80
2021/06/19 09:44:03;;;;;;;;;;;18.10;99.90;;;;;;5046040;28;19940;-80
2021/06/19 09:46:29;;;;;;;;;;;18.10;99.90;;;;;;5049991;28;19970;-81
2021/06/19 09:49:07;;;;;;;;;;;18.10;99.90;;;;;;5048211;28;19917;-84
2021/06/19 09:51:33;;;;;;;;;;;18.10;99.90;;;;;;5063027;28;19923;-88
2021/06/19 09:54:03;;;;;;;;;;;18.20;99.90;;;;;;5041987;28;19999;-87
2021/06/19 09:56:28;;;;;;;;;;;18.10;99.90;;;;;;5060245;28;19908;-83
2021/06/19 09:58:57;;;;;;;;;;;18.20;99.90;;;;;;5060525;28;19996;-84
2021/06/19 10:01:33;;;;;;;;;;;18.20;99.90;;;;;;5075755;28;20464;-83
2021/06/19 10:03:59;;;;;;;;;;;18.20;99.90;;;;;;5056158;28;19939;-83
2021/06/19 10:06:26;;;;;;;;;;;18.30;99.90;;;;;;5043426;28;19973;-87
2021/06/19 10:08:52;;;;;;;;;;;18.40;99.90;;;;;;5040436;28;19935;-80
2021/06/19 10:11:19;;;;;;;;;;;18.40;99.90;;;;;;5061424;28;19920;-81
2021/06/19 10:13:45;;;;;;;;;;;18.40;99.90;;;;;;5062248;28;19916;-81
2021/06/19 10:16:12;;;;;;;;;;;18.60;99.90;;;;;;5044044;28;19913;-79
2021/06/19 10:18:41;;;;;;;;;;;18.60;99.90;;;;;;5075737;28;20021;-84
2021/06/19 10:21:07;;;;;;;;;;;18.70;99.90;;;;;;5064173;28;19920;-80
2021/06/19 10:23:34;;;;;;;;;;;18.90;99.90;;;;;;5042169;28;19916;-83
2021/06/19 10:25:59;;;;;;;;;;;18.90;99.90;;;;;;5056471;28;19999;-84
2021/06/19 10:28:26;;;;;;;;;;;19.00;99.90;;;;;;5060717;28;20277;-80
2021/06/19 10:30:52;;;;;;;;;;;19.10;99.90;;;;;;5063577;28;19913;-80
2021/06/19 10:33:30;;;;;;;;;;;19.10;99.90;;;;;;5063979;28;19987;-87
2021/06/19 10:36:02;;;;;;;;;;;19.10;99.90;;;;;;5060166;28;20708;-84
2021/06/19 10:38:28;;;;;;;;;;;19.10;99.90;;;;;;5044188;28;20007;-80
2021/06/19 10:41:00;;;;;;;;;;;19.10;99.90;;;;;;5059110;28;20007;-83
2021/06/19 10:43:27;;;;;;;;;;;19.20;99.90;;;;;;5061838;28;19917;-81
2021/06/19 10:45:53;;;;;;;;;;;19.20;99.90;;;;;;5042724;28;19923;-81
2021/06/19 10:48:19;;;;;;;;;;;19.30;99.90;;;;;;5064835;28;19919;-80
2021/06/19 10:50:46;;;;;;;;;;;19.30;99.90;;;;;;5059951;28;20280;-81
2021/06/19 10:53:15;;;;;;;;;;;19.30;99.90;;;;;;5065215;28;19908;-78
2021/06/19 10:55:43;;;;;;;;;;;19.20;99.90;;;;;;5063432;28;19919;-79
2021/06/19 10:58:21;;;;;;;;;;;19.30;99.90;;;;;;5062174;28;19970;-82
2021/06/19 11:00:48;;;;;;;;;;;19.50;99.90;;;;;;5058920;28;19916;-80
2021/06/19 11:03:14;;;;;;;;;;;19.60;99.90;;;;;;5046806;28;19909;-87
2021/06/19 11:05:40;;;;;;;;;;;19.80;99.90;;;;;;5056824;28;19921;-84
2021/06/19 11:08:06;;;;;;;;;;;19.80;99.90;;;;;;5062628;28;19922;-82
2021/06/19 11:10:47;;;;;;;;;;;19.80;99.90;;;;;;5061280;28;19974;-82
2021/06/19 11:13:28;;;;;;;;;;;19.80;99.90;;;;;;5058260;28;19967;-84
2021/06/19 11:15:54;;;;;;;;;;;19.80;99.90;;;;;;5057113;28;20364;-92
2021/06/19 11:18:38;;;;;;;;;;;19.70;99.90;;;;;;5040320;28;19920;-90
2021/06/19 11:21:10;;;;;;;;;;;19.70;99.90;;;;;;5062222;28;19923;-86
2021/06/19 11:23:55;;;;;;;;;;;19.60;99.90;;;;;;5040872;28;19974;-82
2021/06/19 11:26:39;;;;;;;;;;;19.50;99.90;;;;;;5056330;28;20338;-80
2021/06/19 11:29:24;;;;;;;;;;;19.50;99.90;;;;;;5057324;28;19912;-82
2021/06/19 11:31:50;;;;;;;;;;;19.50;99.90;;;;;;5059822;28;19913;-81
2021/06/19 11:34:34;;;;;;;;;;;19.50;99.90;;;;;;5063247;28;19970;-88
2021/06/19 11:37:00;;;;;;;;;;;19.50;99.90;;;;;;5062661;28;19924;-82
2021/06/19 11:39:35;;;;;;;;;;;19.60;99.90;;;;;;5080679;28;20211;-82
2021/06/19 11:42:00;;;;;;;;;;;19.60;99.90;;;;;;5057238;28;19917;-81
2021/06/19 11:44:31;;;;;;;;;;;19.70;99.90;;;;;;5036883;28;19935;-84
2021/06/19 11:46:58;;;;;;;;;;;19.80;99.90;;;;;;5065641;28;19913;-81
2021/06/19 11:49:30;;;;;;;;;;;20.00;99.90;;;;;;5053086;28;19974;-80
2021/06/19 11:51:56;;;;;;;;;;;20.20;99.90;;;;;;5052531;28;19919;-80
2021/06/19 11:54:23;;;;;;;;;;;20.20;99.90;;;;;;5051972;28;20249;-78
2021/06/19 11:56:48;;;;;;;;;;;20.30;99.90;;;;;;5036348;28;19919;-80
2021/06/19 11:59:14;;;;;;;;;;;20.40;99.90;;;;;;5053567;28;20199;-82
2021/06/19 12:01:41;;;;;;;;;;;20.40;99.90;;;;;;5035043;28;19916;-79
2021/06/19 12:04:10;;;;;;;;;;;20.30;99.90;;;;;;5052164;28;19905;-81
2021/06/19 12:06:38;;;;;;;;;;;20.30;99.90;;;;;;5052736;28;19916;-85
2021/06/19 12:09:05;;;;;;;;;;;20.30;99.90;;;;;;5050173;28;20000;-79
2021/06/19 12:11:32;;;;;;;;;;;20.30;99.90;;;;;;5052368;28;19920;-77
2021/06/19 12:13:58;;;;;;;;;;;20.40;99.90;;;;;;5037141;28;20298;-81
2021/06/19 12:16:28;;;;;;;;;;;20.40;99.90;;;;;;5052930;28;20410;-80
2021/06/19 12:19:00;;;;;;;;;;;20.50;99.90;;;;;;5040345;28;19924;-80
2021/06/19 12:21:32;;;;;;;;;;;20.50;99.90;;;;;;5051088;28;19923;-82
2021/06/19 12:23:58;;;;;;;;;;;20.60;99.90;;;;;;5046771;28;19909;-86
2021/06/19 12:26:24;;;;;;;;;;;20.50;99.90;;;;;;5035842;28;19909;-79
2021/06/19 12:28:50;;;;;;;;;;;20.50;99.90;;;;;;5033755;28;19916;-79
2021/06/19 12:31:16;;;;;;;;;;;20.50;99.90;;;;;;5052348;28;19922;-80
2021/06/19 12:33:43;;;;;;;;;;;20.30;99.90;;;;;;5044174;28;20211;-79
2021/06/19 12:36:09;;;;;;;;;;;20.30;99.90;;;;;;5060911;28;19913;-77
2021/06/19 12:38:36;;;;;;;;;;;20.30;99.90;;;;;;5048635;28;20007;-81
2021/06/19 12:41:04;;;;;;;;;;;20.20;99.90;;;;;;5061038;28;19916;-78
2021/06/19 12:43:29;;;;;;;;;;;20.10;99.90;;;;;;5050860;28;19908;-79
2021/06/19 12:45:55;;;;;;;;;;;20.20;99.90;;;;;;5059662;28;20272;-80
2021/06/19 12:48:28;;;;;;;;;;;20.10;99.90;;;;;;5040778;28;20183;-79
2021/06/19 12:50:58;;;;;;;;;;;20.10;99.90;;;;;;5059522;28;19966;-79
2021/06/19 12:53:27;;;;;;;;;;;20.10;99.90;;;;;;5058555;28;20299;-79
2021/06/19 12:55:53;;;;;;;;;;;20.20;99.90;;;;;;5042632;28;19942;-79
2021/06/19 12:58:19;;;;;;;;;;;20.20;99.90;;;;;;5057071;28;20338;-80
2021/06/19 13:00:48;;;;;;;;;;;20.20;99.90;;;;;;5037598;28;20005;-79
2021/06/19 13:03:18;;;;;;;;;;;20.20;99.90;;;;;;5037558;28;20262;-79
2021/06/19 13:05:47;;;;;;;;;;;20.20;99.90;;;;;;5043058;28;19909;-80
2021/06/19 13:08:14;;;;;;;;;;;20.20;99.90;;;;;;5056403;28;19944;-83
2021/06/19 13:10:40;;;;;;;;;;;20.10;99.90;;;;;;5036034;28;20326;-80
2021/06/19 13:13:06;;;;;;;;;;;19.90;99.90;;;;;;5055188;28;19921;-82
2021/06/19 13:15:31;;;;;;;;;;;19.90;99.90;;;;;;5030562;28;20197;-82
2021/06/19 13:17:57;;;;;;;;;;;19.80;99.90;;;;;;5055693;28;19917;-79
2021/06/19 13:20:29;;;;;;;;;;;19.90;99.90;;;;;;5051838;28;19920;-82
2021/06/19 13:23:00;;;;;;;;;;;19.80;99.90;;;;;;5046475;28;19909;-80
2021/06/19 13:25:45;;;;;;;;;;;19.70;99.90;;;;;;5058128;28;20299;-81
2021/06/19 13:28:11;;;;;;;;;;;19.70;99.90;;;;;;5051161;28;20011;-79
2021/06/19 13:30:37;;;;;;;;;;;19.60;99.90;;;;;;5051874;28;20014;-82
2021/06/19 13:33:02;;;;;;;;;;;19.60;99.90;;;;;;5047541;28;19916;-79
2021/06/19 13:35:28;;;;;;;;;;;19.50;99.90;;;;;;5048040;28;19964;-82
2021/06/19 13:37:57;;;;;;;;;;;19.50;99.90;;;;;;5047930;28;19909;-80
2021/06/19 13:40:26;;;;;;;;;;;19.60;99.90;;;;;;5050594;28;19913;-82
2021/06/19 13:42:53;;;;;;;;;;;19.60;99.90;;;;;;5028951;28;19959;-79
2021/06/19 13:45:19;;;;;;;;;;;19.50;99.90;;;;;;5049130;28;19965;-82
2021/06/19 13:47:44;;;;;;;;;;;19.60;99.90;;;;;;5064380;28;19999;-82
2021/06/19 13:50:10;;;;;;;;;;;19.60;99.90;;;;;;5062923;28;19919;-80
2021/06/19 13:52:37;;;;;;;;;;;19.60;99.90;;;;;;5061933;28;19935;-87
2021/06/19 13:55:02;;;;;;;;;;;19.60;99.90;;;;;;5057675;28;19919;-83
2021/06/19 13:57:28;;;;;;;;;;;19.60;99.90;;;;;;5063391;28;19912;-84
2021/06/19 13:59:54;;;;;;;;;;;19.50;99.90;;;;;;5058858;28;19938;-83
2021/06/19 14:02:20;;;;;;;;;;;19.40;99.90;;;;;;5059858;28;19913;-81
2021/06/19 14:04:46;;;;;;;;;;;19.50;99.90;;;;;;5058711;28;19917;-82
2021/06/19 14:07:11;;;;;;;;;;;19.50;99.90;;;;;;5060087;28;19908;-83
2021/06/19 14:09:37;;;;;;;;;;;19.60;99.90;;;;;;5058366;28;19909;-79
2021/06/19 14:12:04;;;;;;;;;;;19.60;99.90;;;;;;5047117;28;20295;-79
2021/06/19 14:14:29;;;;;;;;;;;19.60;99.90;;;;;;5063503;28;19923;-78